Terminal Aerodrome Forecast
Issued by NWS

Home | Current Version | Previous Version | Text Only | Print | Product List | Glossary On
Versions: 1 2 3 4 5 6 7 8 9 10 11 12
000
FTUS42 TJSJ 311739
TAFJBQ
TAF
TJBQ 311739Z 3118/0118 07016KT P6SM VCSH SCT025 SCT040
      TEMPO 3118/3121 VRB17G26KT 4SM TSRA BKN025CB BKN050
     FM312330 09012KT P6SM FEW025 BKN050
     FM010300 11004KT P6SM SKC
     FM011450 07015KT P6SM SCT025=

USA.gov is the U.S. government's official web portal to all federal, state and local government web resources and services.